createdAt,value
2019-01-29T00:01:20.603Z,99.90
2019-01-29T00:03:49.989Z,99.90
2019-01-29T00:06:18.610Z,99.90
2019-01-29T00:08:47.296Z,99.90
2019-01-29T00:11:16.078Z,99.90
2019-01-29T00:13:44.814Z,99.90
2019-01-29T00:16:13.569Z,99.90
2019-01-29T00:18:43.724Z,99.90
2019-01-29T00:21:12.582Z,99.90
2019-01-29T00:23:43.750Z,99.90
2019-01-29T00:26:12.821Z,99.90
2019-01-29T00:28:42.963Z,99.90
2019-01-29T00:31:11.456Z,99.90
2019-01-29T00:33:39.803Z,99.90
2019-01-29T00:36:08.406Z,99.90
2019-01-29T00:38:36.864Z,99.90
2019-01-29T00:41:05.230Z,99.90
2019-01-29T00:43:33.710Z,99.90
2019-01-29T00:46:02.331Z,99.90
2019-01-29T00:48:30.687Z,99.90
2019-01-29T00:50:59.064Z,99.90
2019-01-29T00:53:27.624Z,99.90
2019-01-29T00:55:56.151Z,99.90
2019-01-29T00:58:24.498Z,99.90
2019-01-29T01:00:54.679Z,99.90
2019-01-29T01:03:23.136Z,99.90
2019-01-29T01:05:51.806Z,99.90
2019-01-29T01:08:21.222Z,99.90
2019-01-29T01:10:49.581Z,99.90
2019-01-29T01:13:18.085Z,99.90
2019-01-29T01:15:46.668Z,99.90
2019-01-29T01:18:15.560Z,99.90
2019-01-29T01:20:44.125Z,99.90
2019-01-29T01:23:12.504Z,99.90
2019-01-29T01:25:41.047Z,99.90
2019-01-29T01:28:09.730Z,99.90
2019-01-29T01:30:38.679Z,99.90
2019-01-29T01:33:07.248Z,99.90
2019-01-29T01:35:35.804Z,99.90
2019-01-29T01:38:04.378Z,99.90
2019-01-29T01:40:32.739Z,99.90
2019-01-29T01:43:01.112Z,99.90
2019-01-29T01:45:29.863Z,99.90
2019-01-29T01:47:58.439Z,99.90
2019-01-29T01:50:26.904Z,99.90
2019-01-29T01:52:59.371Z,99.90
2019-01-29T01:55:27.544Z,99.90
2019-01-29T01:57:57.717Z,99.90
2019-01-29T02:00:32.020Z,99.90
2019-01-29T02:03:00.499Z,99.90
2019-01-29T02:05:28.941Z,99.90
2019-01-29T02:07:57.432Z,99.90
2019-01-29T02:10:28.920Z,99.90
2019-01-29T02:12:58.301Z,99.90
2019-01-29T02:15:26.852Z,99.90
2019-01-29T02:17:55.225Z,99.90
2019-01-29T02:20:24.020Z,99.90
2019-01-29T02:22:52.398Z,99.90
2019-01-29T02:25:20.857Z,99.90
2019-01-29T02:27:49.335Z,99.90
2019-01-29T02:30:21.015Z,99.90
2019-01-29T02:32:49.788Z,99.90
2019-01-29T02:35:18.237Z,99.90
2019-01-29T02:37:48.399Z,99.90
2019-01-29T02:40:24.099Z,99.90
2019-01-29T02:42:52.896Z,99.90
2019-01-29T02:45:23.575Z,99.90
2019-01-29T02:47:52.035Z,99.90
2019-01-29T02:50:20.608Z,99.90
2019-01-29T02:52:49.065Z,99.90
2019-01-29T02:55:17.551Z,99.90
2019-01-29T02:57:46.199Z,99.90
2019-01-29T03:00:29.117Z,99.90
2019-01-29T03:02:57.623Z,99.90
2019-01-29T03:05:26.019Z,99.90
2019-01-29T03:07:54.869Z,99.90
2019-01-29T03:10:25.592Z,99.90
2019-01-29T03:12:54.609Z,99.90
2019-01-29T03:15:29.257Z,99.90
2019-01-29T03:17:57.767Z,99.90
2019-01-29T03:20:26.593Z,99.90
2019-01-29T03:22:55.046Z,99.90
2019-01-29T03:25:23.617Z,99.90
2019-01-29T03:27:52.010Z,99.90
2019-01-29T03:30:20.464Z,99.90
2019-01-29T03:32:49.028Z,99.90
2019-01-29T03:35:18.001Z,99.90
2019-01-29T03:37:46.360Z,99.90
2019-01-29T03:40:22.645Z,99.90
2019-01-29T03:42:51.097Z,99.90
2019-01-29T03:45:19.532Z,99.90
2019-01-29T03:47:48.777Z,99.90
2019-01-29T03:50:18.847Z,99.90
2019-01-29T03:52:47.293Z,99.90
2019-01-29T03:55:16.063Z,99.90
2019-01-29T03:57:44.422Z,99.90
2019-01-29T04:00:27.128Z,99.90
2019-01-29T04:02:56.549Z,99.90
2019-01-29T04:05:24.983Z,99.90
2019-01-29T04:07:53.432Z,99.90
2019-01-29T04:10:22.110Z,99.90
2019-01-29T04:12:50.563Z,99.90
2019-01-29T04:15:19.906Z,99.90
2019-01-29T04:17:54.647Z,99.90
2019-01-29T04:20:23.308Z,99.90
2019-01-29T04:22:51.670Z,99.90
2019-01-29T04:25:20.038Z,99.90
2019-01-29T04:27:48.391Z,99.90
2019-01-29T04:30:19.952Z,99.90
2019-01-29T04:32:48.509Z,99.90
2019-01-29T04:35:17.076Z,99.90
2019-01-29T04:37:45.519Z,99.90
2019-01-29T04:40:17.135Z,99.90
2019-01-29T04:42:45.850Z,99.90
2019-01-29T04:45:15.809Z,99.90
2019-01-29T04:47:44.275Z,99.90
2019-01-29T04:50:18.715Z,99.90
2019-01-29T04:52:47.060Z,99.90
2019-01-29T04:55:15.813Z,99.90
2019-01-29T04:57:44.233Z,99.90
2019-01-29T05:00:31.251Z,99.90
2019-01-29T05:02:59.610Z,99.90
2019-01-29T05:05:29.745Z,99.90
2019-01-29T05:07:58.327Z,99.90
2019-01-29T05:10:27.171Z,99.90
2019-01-29T05:12:57.058Z,99.90
2019-01-29T05:15:25.451Z,99.90
2019-01-29T05:17:53.815Z,99.90
2019-01-29T05:20:23.375Z,99.90
2019-01-29T05:22:51.741Z,99.90
2019-01-29T05:25:20.474Z,99.90
2019-01-29T05:27:49.065Z,99.90
2019-01-29T05:30:21.191Z,99.90
2019-01-29T05:32:49.846Z,99.90
2019-01-29T05:35:18.497Z,99.90
2019-01-29T05:37:48.684Z,99.90
2019-01-29T05:40:19.029Z,99.90
2019-01-29T05:42:48.998Z,99.90
2019-01-29T05:45:19.118Z,99.90
2019-01-29T05:47:48.558Z,99.90
2019-01-29T05:50:17.586Z,99.90
2019-01-29T05:52:46.085Z,99.90
2019-01-29T05:55:15.385Z,99.90
2019-01-29T05:57:45.642Z,99.90
2019-01-29T06:00:32.392Z,99.90
2019-01-29T06:03:00.772Z,99.90
2019-01-29T06:05:29.439Z,99.90
2019-01-29T06:07:58.019Z,99.90
2019-01-29T06:10:26.375Z,99.90
2019-01-29T06:12:54.868Z,99.90
2019-01-29T06:15:23.774Z,99.90
2019-01-29T06:17:52.341Z,99.90
2019-01-29T06:20:22.810Z,99.90
2019-01-29T06:22:51.408Z,99.90
2019-01-29T06:25:19.755Z,99.90
2019-01-29T06:27:49.438Z,99.90
2019-01-29T06:30:19.711Z,99.90
2019-01-29T06:32:48.193Z,99.90
2019-01-29T06:35:17.809Z,99.90
2019-01-29T06:37:46.293Z,99.90
2019-01-29T06:40:18.453Z,99.90
2019-01-29T06:42:48.625Z,99.90
2019-01-29T06:45:19.203Z,99.90
2019-01-29T06:47:47.800Z,99.90
2019-01-29T06:50:19.396Z,99.90
2019-01-29T06:52:47.760Z,99.90
2019-01-29T06:55:18.351Z,99.90
2019-01-29T06:57:55.155Z,99.90
2019-01-29T07:00:29.192Z,99.90
2019-01-29T07:02:59.718Z,99.90
2019-01-29T07:05:28.535Z,99.90
2019-01-29T07:07:57.102Z,99.90
2019-01-29T07:10:27.061Z,99.90
2019-01-29T07:12:55.835Z,99.90
2019-01-29T07:15:45.481Z,99.90
2019-01-29T07:18:37.823Z,99.90
2019-01-29T07:21:08.549Z,99.90
2019-01-29T07:23:38.870Z,99.90
2019-01-29T07:26:07.266Z,99.90
2019-01-29T07:28:35.665Z,99.90
2019-01-29T07:31:05.382Z,99.90
2019-01-29T07:33:34.179Z,99.90
2019-01-29T07:36:02.749Z,99.90
2019-01-29T07:38:31.533Z,99.90
2019-01-29T07:41:00.212Z,99.90
2019-01-29T07:43:28.654Z,99.90
2019-01-29T07:45:57.308Z,99.90
2019-01-29T07:48:25.764Z,99.90
2019-01-29T07:50:54.161Z,99.90
2019-01-29T07:53:23.005Z,99.90
2019-01-29T07:55:51.552Z,99.90
2019-01-29T07:58:19.999Z,99.90
2019-01-29T08:00:48.376Z,99.90
2019-01-29T08:03:16.877Z,99.90
2019-01-29T08:05:45.667Z,99.90
2019-01-29T08:08:14.135Z,99.90
2019-01-29T08:10:42.876Z,99.90
2019-01-29T08:13:11.330Z,99.90
2019-01-29T08:15:41.673Z,99.90
2019-01-29T08:18:10.709Z,99.90
2019-01-29T08:20:39.271Z,99.90
2019-01-29T08:23:08.201Z,99.90
2019-01-29T08:25:37.654Z,99.90
2019-01-29T08:28:06.100Z,99.90
2019-01-29T08:30:34.759Z,99.90
2019-01-29T08:33:03.481Z,99.90
2019-01-29T08:35:32.847Z,99.90
2019-01-29T08:38:01.381Z,99.90
2019-01-29T08:40:30.481Z,99.90
2019-01-29T08:42:59.401Z,99.90
2019-01-29T08:45:28.422Z,99.90
2019-01-29T08:47:56.908Z,99.90
2019-01-29T08:50:25.978Z,99.90
2019-01-29T08:52:54.879Z,99.90
2019-01-29T08:55:24.117Z,99.90
2019-01-29T08:57:52.785Z,99.90
2019-01-29T09:00:32.460Z,99.90
2019-01-29T09:03:01.659Z,99.90
2019-01-29T09:05:30.587Z,99.90
2019-01-29T09:07:59.198Z,99.90
2019-01-29T09:10:27.613Z,99.90
2019-01-29T09:12:56.080Z,99.90
2019-01-29T09:15:24.555Z,99.90
2019-01-29T09:17:53.941Z,99.90
2019-01-29T09:20:22.645Z,99.90
2019-01-29T09:22:51.380Z,99.90
2019-01-29T09:25:22.834Z,99.90
2019-01-29T09:27:51.692Z,99.90
2019-01-29T09:30:20.785Z,99.90
2019-01-29T09:32:49.769Z,99.90
2019-01-29T09:35:18.219Z,99.90
2019-01-29T09:37:46.587Z,99.90
2019-01-29T09:40:17.440Z,99.90
2019-01-29T09:42:46.117Z,99.90
2019-01-29T09:45:16.440Z,99.90
2019-01-29T09:47:44.932Z,99.90
2019-01-29T09:50:17.664Z,99.90
2019-01-29T09:52:46.633Z,99.90
2019-01-29T09:55:18.510Z,99.90
2019-01-29T09:57:46.970Z,99.90
2019-01-29T10:00:32.145Z,99.90
2019-01-29T10:03:00.646Z,99.90
2019-01-29T10:05:30.825Z,99.90
2019-01-29T10:07:59.379Z,99.90
2019-01-29T10:10:27.856Z,99.90
2019-01-29T10:12:58.230Z,99.90
2019-01-29T10:15:29.394Z,99.90
2019-01-29T10:17:57.760Z,98.80
2019-01-29T10:20:26.729Z,97.90
2019-01-29T10:22:55.102Z,98.10
2019-01-29T10:25:23.562Z,98.40
2019-01-29T10:27:51.948Z,98.00
2019-01-29T10:30:23.992Z,98.80
2019-01-29T10:32:52.696Z,95.80
2019-01-29T10:35:22.220Z,97.10
2019-01-29T10:37:50.695Z,96.10
2019-01-29T10:40:21.314Z,95.40
2019-01-29T10:42:50.090Z,96.30
2019-01-29T10:45:21.187Z,94.90
2019-01-29T10:47:49.665Z,95.60
2019-01-29T10:50:20.977Z,94.80
2019-01-29T10:52:50.286Z,93.10
2019-01-29T10:55:18.840Z,93.70
2019-01-29T10:57:47.913Z,93.20
2019-01-29T11:00:24.826Z,89.70
2019-01-29T11:02:55.784Z,87.00
2019-01-29T11:05:25.933Z,86.60
2019-01-29T11:07:55.199Z,89.70
2019-01-29T11:10:25.448Z,86.20
2019-01-29T11:12:53.953Z,91.40
2019-01-29T11:15:32.746Z,84.00
2019-01-29T11:18:01.195Z,81.10
2019-01-29T11:20:29.766Z,80.00
2019-01-29T11:22:59.628Z,84.40
2019-01-29T11:25:29.451Z,77.40
2019-01-29T11:27:59.600Z,79.20
2019-01-29T11:30:28.866Z,75.40
2019-01-29T11:32:57.526Z,78.00
2019-01-29T11:35:26.297Z,72.00
2019-01-29T11:37:54.847Z,71.90
2019-01-29T11:40:25.331Z,74.30
2019-01-29T11:42:53.903Z,69.40
2019-01-29T11:45:32.233Z,72.50
2019-01-29T11:48:00.775Z,73.70
2019-01-29T11:50:29.178Z,69.70
2019-01-29T11:52:57.627Z,67.70
2019-01-29T11:55:26.095Z,73.20
2019-01-29T11:57:54.643Z,72.10
2019-01-29T12:00:37.216Z,68.30
2019-01-29T12:03:05.669Z,66.60
2019-01-29T12:05:34.162Z,68.50
2019-01-29T12:08:02.931Z,64.50
2019-01-29T12:10:31.420Z,64.10
2019-01-29T12:13:02.409Z,65.40
2019-01-29T12:15:31.135Z,63.20
2019-01-29T12:18:00.496Z,59.40
2019-01-29T12:20:28.969Z,59.70
2019-01-29T12:22:57.884Z,57.90
2019-01-29T12:25:26.455Z,59.20
2019-01-29T12:27:55.133Z,62.80
2019-01-29T12:30:24.173Z,58.10
2019-01-29T12:32:52.857Z,58.60
2019-01-29T12:35:23.724Z,58.60
2019-01-29T12:37:52.407Z,62.20
2019-01-29T12:40:20.893Z,57.10
2019-01-29T12:42:49.700Z,58.10
2019-01-29T12:45:20.790Z,57.90
2019-01-29T12:47:49.784Z,58.80
2019-01-29T12:50:21.807Z,59.10
2019-01-29T12:53:16.553Z,55.50
2019-01-29T12:55:45.448Z,58.70
2019-01-29T12:58:14.326Z,57.50
2019-01-29T13:00:48.068Z,56.00
2019-01-29T13:03:16.971Z,56.50
2019-01-29T13:05:46.189Z,56.30
2019-01-29T13:08:14.625Z,58.70
2019-01-29T13:10:43.645Z,57.30
2019-01-29T13:13:12.782Z,55.60
2019-01-29T13:15:42.589Z,56.60
2019-01-29T13:18:12.161Z,54.20
2019-01-29T13:20:42.352Z,55.00
2019-01-29T13:23:11.320Z,58.90
2019-01-29T13:25:40.218Z,57.90
2019-01-29T13:28:09.336Z,55.30
2019-01-29T13:30:39.778Z,54.70
2019-01-29T13:33:14.318Z,54.10
2019-01-29T13:35:46.627Z,58.50
2019-01-29T13:38:16.109Z,56.30
2019-01-29T13:40:44.868Z,54.90
2019-01-29T13:43:13.740Z,58.80
2019-01-29T13:45:42.139Z,59.40
2019-01-29T13:48:10.905Z,57.00
2019-01-29T13:50:53.034Z,56.60
2019-01-29T13:53:21.511Z,55.80
2019-01-29T13:55:50.165Z,56.50
2019-01-29T13:58:18.908Z,55.90
2019-01-29T14:00:47.475Z,55.40
2019-01-29T14:03:16.049Z,56.60
2019-01-29T14:05:44.709Z,55.90
2019-01-29T14:08:13.451Z,58.20
2019-01-29T14:10:43.089Z,59.10
2019-01-29T14:13:11.626Z,59.20
2019-01-29T14:16:02.742Z,58.10
2019-01-29T14:18:32.267Z,57.90
2019-01-29T14:21:01.012Z,60.30
2019-01-29T14:23:29.448Z,59.50
2019-01-29T14:25:57.879Z,61.80
2019-01-29T14:28:26.249Z,63.20
2019-01-29T14:30:54.611Z,69.30
2019-01-29T14:33:23.089Z,72.20
2019-01-29T14:35:51.465Z,74.00
2019-01-29T14:39:32.364Z,77.80
2019-01-29T14:42:00.820Z,77.70
2019-01-29T14:44:36.837Z,77.70
2019-01-29T14:47:05.318Z,80.20
2019-01-29T14:49:35.467Z,78.10
2019-01-29T14:52:04.029Z,80.70
2019-01-29T14:54:32.496Z,83.00
2019-01-29T14:57:01.077Z,83.30
2019-01-29T14:59:29.529Z,83.10
2019-01-29T15:01:57.888Z,84.00
2019-01-29T15:04:27.165Z,85.00
2019-01-29T15:06:55.574Z,86.50
2019-01-29T15:09:24.056Z,87.30
2019-01-29T15:11:53.496Z,88.20
2019-01-29T15:14:21.968Z,89.20
2019-01-29T15:17:02.773Z,90.50
2019-01-29T15:19:32.121Z,90.80
2019-01-29T15:22:00.594Z,91.70
2019-01-29T15:24:29.169Z,92.00
2019-01-29T15:27:05.351Z,92.90
2019-01-29T15:29:27.969Z,93.50
2019-01-29T15:31:56.721Z,94.40
2019-01-29T15:34:26.204Z,94.70
2019-01-29T15:36:55.128Z,96.00
2019-01-29T15:39:23.744Z,96.10
2019-01-29T15:41:54.850Z,96.20
2019-01-29T15:44:23.225Z,96.60
2019-01-29T15:46:52.579Z,98.10
2019-01-29T15:49:21.043Z,99.00
2019-01-29T15:51:49.484Z,99.90
2019-01-29T15:54:18.156Z,99.90
2019-01-29T15:56:48.334Z,99.90
2019-01-29T15:59:25.001Z,99.90
2019-01-29T16:01:54.889Z,99.90
2019-01-29T16:04:23.356Z,99.90
2019-01-29T16:06:54.079Z,99.90
2019-01-29T16:09:22.509Z,99.90
2019-01-29T16:11:50.878Z,99.90
2019-01-29T16:14:19.249Z,99.90
2019-01-29T16:16:48.171Z,99.90
2019-01-29T16:19:16.992Z,99.90
2019-01-29T16:21:47.290Z,99.90
2019-01-29T16:24:17.007Z,99.90
2019-01-29T16:26:46.748Z,99.90
2019-01-29T16:29:15.257Z,99.90
2019-01-29T16:31:44.811Z,99.90
2019-01-29T16:34:13.282Z,99.90
2019-01-29T16:36:42.125Z,99.90
2019-01-29T16:39:11.081Z,99.90
2019-01-29T16:41:39.980Z,99.90
2019-01-29T16:44:08.946Z,99.90
2019-01-29T16:46:37.816Z,99.90
2019-01-29T16:49:06.356Z,99.90
2019-01-29T16:51:41.999Z,99.90
2019-01-29T16:54:05.953Z,99.90
2019-01-29T16:56:36.372Z,99.90
2019-01-29T16:59:06.396Z,99.90
2019-01-29T17:01:35.254Z,99.90
2019-01-29T17:04:05.392Z,99.90
2019-01-29T17:06:34.468Z,99.90
2019-01-29T17:09:06.634Z,99.90
2019-01-29T17:11:35.931Z,99.90
2019-01-29T17:14:04.500Z,99.90
2019-01-29T17:16:34.442Z,99.90
2019-01-29T17:19:03.683Z,99.90
2019-01-29T17:21:32.156Z,99.90
2019-01-29T17:24:00.800Z,99.90
2019-01-29T17:26:31.077Z,99.90
2019-01-29T17:29:00.039Z,99.90
2019-01-29T17:31:31.144Z,99.90
2019-01-29T17:33:59.664Z,99.90
2019-01-29T17:36:28.460Z,99.90
2019-01-29T17:38:56.848Z,99.90
2019-01-29T17:41:25.362Z,99.90
2019-01-29T17:43:53.995Z,99.90
2019-01-29T17:46:24.265Z,99.90
2019-01-29T17:48:54.636Z,99.90
2019-01-29T17:51:23.105Z,99.90
2019-01-29T17:53:51.525Z,99.90
2019-01-29T17:56:19.982Z,99.90
2019-01-29T17:58:48.993Z,99.90
2019-01-29T18:01:17.833Z,99.90
2019-01-29T18:03:47.276Z,99.90
2019-01-29T18:06:16.056Z,99.90
2019-01-29T18:08:49.968Z,99.90
2019-01-29T18:11:15.467Z,99.90
2019-01-29T18:13:46.103Z,99.90
2019-01-29T18:16:14.875Z,99.90
2019-01-29T18:18:43.583Z,99.90
2019-01-29T18:21:12.241Z,99.90
2019-01-29T18:23:40.932Z,99.90
2019-01-29T18:26:10.276Z,99.90
2019-01-29T18:28:38.637Z,99.90
2019-01-29T18:31:07.914Z,99.90
2019-01-29T18:33:36.686Z,99.90
2019-01-29T18:36:05.515Z,99.90
2019-01-29T18:38:34.010Z,99.90
2019-01-29T18:41:03.720Z,99.90
2019-01-29T18:43:32.324Z,99.90
2019-01-29T18:46:00.919Z,99.90
2019-01-29T18:48:29.472Z,99.90
2019-01-29T18:50:58.093Z,99.90
2019-01-29T18:53:26.595Z,99.90
2019-01-29T18:55:55.178Z,99.90
2019-01-29T18:58:24.217Z,99.90
2019-01-29T19:00:54.581Z,99.90
2019-01-29T19:03:23.500Z,99.90
2019-01-29T19:05:52.770Z,99.90
2019-01-29T19:08:21.508Z,99.90
2019-01-29T19:10:49.995Z,99.90
2019-01-29T19:13:19.108Z,99.90
2019-01-29T19:15:47.783Z,99.90
2019-01-29T19:18:16.379Z,99.90
2019-01-29T19:20:46.609Z,99.90
2019-01-29T19:23:15.090Z,99.90
2019-01-29T19:25:45.406Z,99.90
2019-01-29T19:28:21.755Z,99.90
2019-01-29T19:30:44.592Z,99.90
2019-01-29T19:33:13.127Z,99.90
2019-01-29T19:35:42.191Z,99.90
2019-01-29T19:38:11.057Z,99.90
2019-01-29T19:40:40.507Z,99.90
2019-01-29T19:43:09.453Z,99.90
2019-01-29T19:45:39.957Z,99.90
2019-01-29T19:48:08.409Z,99.90
2019-01-29T19:50:37.834Z,99.90
2019-01-29T19:53:06.369Z,99.90
2019-01-29T19:55:35.139Z,99.90
2019-01-29T19:58:09.247Z,99.90
2019-01-29T20:00:40.233Z,99.90
2019-01-29T20:03:09.255Z,99.90
2019-01-29T20:05:38.169Z,99.90
2019-01-29T20:08:06.991Z,99.90
2019-01-29T20:10:36.167Z,99.90
2019-01-29T20:13:05.146Z,99.90
2019-01-29T20:15:35.948Z,99.90
2019-01-29T20:18:05.049Z,99.90
2019-01-29T20:20:37.029Z,99.90
2019-01-29T20:23:08.086Z,99.90
2019-01-29T20:25:37.298Z,99.90
2019-01-29T20:28:07.547Z,99.90
2019-01-29T20:30:37.675Z,99.90
2019-01-29T20:33:06.921Z,99.90
2019-01-29T20:35:35.629Z,99.90
2019-01-29T20:38:04.536Z,99.90
2019-01-29T20:40:33.727Z,99.90
2019-01-29T20:43:02.341Z,99.90
2019-01-29T20:45:31.267Z,99.90
2019-01-29T20:47:59.635Z,99.90
2019-01-29T20:50:31.614Z,99.90
2019-01-29T20:52:59.995Z,99.90
2019-01-29T20:55:28.432Z,99.90
2019-01-29T20:57:57.017Z,99.90
2019-01-29T21:00:33.995Z,99.90
2019-01-29T21:03:03.041Z,99.90
2019-01-29T21:05:31.962Z,99.90
2019-01-29T21:08:00.998Z,99.90
2019-01-29T21:10:30.106Z,99.90
2019-01-29T21:12:58.776Z,99.90
2019-01-29T21:15:37.588Z,99.90
2019-01-29T21:17:58.606Z,99.90
2019-01-29T21:20:29.752Z,99.90
2019-01-29T21:22:58.349Z,99.90
2019-01-29T21:25:26.749Z,99.90
2019-01-29T21:27:55.120Z,99.90
2019-01-29T21:30:30.450Z,99.90
2019-01-29T21:32:59.091Z,99.90
2019-01-29T21:35:27.855Z,99.90
2019-01-29T21:37:56.744Z,99.90
2019-01-29T21:40:26.186Z,99.90
2019-01-29T21:42:54.686Z,99.90
2019-01-29T21:45:23.393Z,99.90
2019-01-29T21:47:52.928Z,99.90
2019-01-29T21:50:24.635Z,99.90
2019-01-29T21:52:53.245Z,99.90
2019-01-29T21:55:21.616Z,99.90
2019-01-29T21:57:52.224Z,99.90
2019-01-29T22:00:32.093Z,99.90
2019-01-29T22:03:00.849Z,99.90
2019-01-29T22:05:29.950Z,99.90
2019-01-29T22:07:59.597Z,99.90
2019-01-29T22:10:28.357Z,99.90
2019-01-29T22:12:57.390Z,99.90
2019-01-29T22:15:25.869Z,99.90
2019-01-29T22:17:54.867Z,99.90
2019-01-29T22:20:23.393Z,99.90
2019-01-29T22:22:53.305Z,99.90
2019-01-29T22:25:21.763Z,99.90
2019-01-29T22:27:50.341Z,99.90
2019-01-29T22:30:29.804Z,99.90
2019-01-29T22:32:58.272Z,99.90
2019-01-29T22:35:26.923Z,99.90
2019-01-29T22:37:55.286Z,99.90
2019-01-29T22:40:25.326Z,99.90
2019-01-29T22:42:54.445Z,99.90
2019-01-29T22:45:23.095Z,99.90
2019-01-29T22:47:51.507Z,99.90
2019-01-29T22:50:23.469Z,99.90
2019-01-29T22:52:51.952Z,99.90
2019-01-29T22:55:20.322Z,99.90
2019-01-29T22:57:48.921Z,99.90
2019-01-29T23:00:56.557Z,99.90
2019-01-29T23:03:49.572Z,99.90
2019-01-29T23:07:11.415Z,99.90
2019-01-29T23:09:40.382Z,99.90
2019-01-29T23:12:08.840Z,99.90
2019-01-29T23:14:37.214Z,99.90
2019-01-29T23:17:05.881Z,99.90
2019-01-29T23:19:34.265Z,99.90
2019-01-29T23:22:02.900Z,99.90
2019-01-29T23:24:31.295Z,99.90
2019-01-29T23:26:59.635Z,99.90
2019-01-29T23:29:28.215Z,99.90
2019-01-29T23:31:58.371Z,99.90
2019-01-29T23:34:26.848Z,99.90
2019-01-29T23:36:55.270Z,99.90
2019-01-29T23:39:24.246Z,99.90
2019-01-29T23:41:53.001Z,99.90
2019-01-29T23:44:21.384Z,99.90
2019-01-29T23:46:50.115Z,99.90
2019-01-29T23:49:18.587Z,99.90
2019-01-29T23:51:47.344Z,99.90
2019-01-29T23:54:15.914Z,99.90
2019-01-29T23:56:44.453Z,99.90
2019-01-29T23:59:13.875Z,99.90
